Time;durP1;ratioP1;P1;durP2;ratioP2;P2;SDS_P1;SDS_P2;PMS_P1;PMS_P2;Temp;Humidity;BMP_temperature;BMP_pressure;BME280_temperature;BME280_humidity;BME280_pressure;Samples;Min_cycle;Max_cycle;Signal;HPM_P1;HPM_P2
2023/10/05 00:00:46;;;;;;;;;;;18.00;56.10;;;;;;5038497;28;92264;-54
2023/10/05 00:03:12;;;;;;;;;;;18.00;56.10;;;;;;5036921;27;94656;-51
2023/10/05 00:05:38;;;;;;;;;;;18.00;56.20;;;;;;5036938;28;92974;-51
2023/10/05 00:08:04;;;;;;;;;;;18.00;56.20;;;;;;5038401;27;94741;-53
2023/10/05 00:10:31;;;;;;;;;;;18.00;56.30;;;;;;5037814;27;93560;-53
2023/10/05 00:13:00;;;;;;;;;;;18.00;56.20;;;;;;5038420;28;92196;-50
2023/10/05 00:15:27;;;;;;;;;;;18.00;56.20;;;;;;5040861;28;92705;-51
2023/10/05 00:17:54;;;;;;;;;;;18.00;56.20;;;;;;5038029;27;92188;-50
2023/10/05 00:20:33;;;;;;;;;;;18.00;56.20;;;;;;5038368;28;92951;-52
2023/10/05 00:23:01;;;;;;;;;;;18.00;56.30;;;;;;5037921;28;91732;-47
2023/10/05 00:25:29;;;;;;;;;;;18.00;56.30;;;;;;5038121;27;92074;-52
2023/10/05 00:27:56;;;;;;;;;;;17.90;56.80;;;;;;5037993;28;92903;-52
2023/10/05 00:30:21;;;;;;;;;;;17.90;56.20;;;;;;5036954;28;94075;-50
2023/10/05 00:32:59;;;;;;;;;;;17.90;56.30;;;;;;5041444;27;92138;-49
2023/10/05 00:35:27;;;;;;;;;;;17.90;56.30;;;;;;5038362;28;92721;-50
2023/10/05 00:37:55;;;;;;;;;;;17.90;56.30;;;;;;5040123;28;92691;-52
2023/10/05 00:40:27;;;;;;;;;;;17.90;56.30;;;;;;5035232;27;94078;-50
2023/10/05 00:42:53;;;;;;;;;;;17.90;56.30;;;;;;5040722;27;94942;-53
2023/10/05 00:45:24;;;;;;;;;;;17.90;56.30;;;;;;5041306;27;92117;-51
2023/10/05 00:47:51;;;;;;;;;;;17.90;56.30;;;;;;5041630;28;92619;-50
2023/10/05 00:50:17;;;;;;;;;;;17.90;56.30;;;;;;5040808;27;93225;-48
2023/10/05 00:52:44;;;;;;;;;;;17.90;56.40;;;;;;5040851;27;92203;-51
2023/10/05 00:55:12;;;;;;;;;;;17.90;56.40;;;;;;5040671;27;93134;-49
2023/10/05 00:57:38;;;;;;;;;;;17.80;56.30;;;;;;5040732;27;93547;-50
2023/10/05 01:02:45;;;;;;;;;;;17.80;56.30;;;;;;5035911;28;93019;-51
2023/10/05 01:05:25;;;;;;;;;;;17.80;56.30;;;;;;5040755;27;92128;-53
2023/10/05 01:07:56;;;;;;;;;;;17.80;56.40;;;;;;5037846;28;93999;-50
2023/10/05 01:12:48;;;;;;;;;;;17.80;56.40;;;;;;5041607;28;91401;-51
2023/10/05 01:15:19;;;;;;;;;;;17.80;56.40;;;;;;5041117;27;92119;-53
2023/10/05 01:17:45;;;;;;;;;;;17.80;56.40;;;;;;5040017;27;93598;-50
2023/10/05 01:20:22;;;;;;;;;;;17.70;56.40;;;;;;5040325;27;93160;-51
2023/10/05 01:22:48;;;;;;;;;;;17.80;56.50;;;;;;5042745;28;93770;-49
2023/10/05 01:25:16;;;;;;;;;;;17.70;56.50;;;;;;5040883;28;92123;-49
2023/10/05 01:27:44;;;;;;;;;;;17.70;56.50;;;;;;5040749;28;92892;-49
2023/10/05 01:30:12;;;;;;;;;;;17.70;56.50;;;;;;5040126;27;93246;-50
2023/10/05 01:32:38;;;;;;;;;;;17.70;56.50;;;;;;5040524;28;92194;-50
2023/10/05 01:35:08;;;;;;;;;;;17.70;56.50;;;;;;5040314;27;92641;-52
2023/10/05 01:37:36;;;;;;;;;;;17.70;56.50;;;;;;5039767;27;94173;-49
2023/10/05 01:40:11;;;;;;;;;;;17.70;56.60;;;;;;5040523;27;92260;-50
2023/10/05 01:42:40;;;;;;;;;;;17.70;56.60;;;;;;5043268;27;92083;-51
2023/10/05 01:45:07;;;;;;;;;;;17.70;56.60;;;;;;5039715;27;93129;-50
2023/10/05 01:47:32;;;;;;;;;;;17.60;56.00;;;;;;5040384;27;94876;-49
2023/10/05 01:49:58;;;;;;;;;;;17.70;56.60;;;;;;5039315;28;93380;-50
2023/10/05 01:52:24;;;;;;;;;;;17.60;56.50;;;;;;5039165;27;92203;-53
2023/10/05 01:54:52;;;;;;;;;;;17.60;56.50;;;;;;5040440;28;93133;-49
2023/10/05 01:57:17;;;;;;;;;;;17.60;56.10;;;;;;5039656;27;94812;-54
2023/10/05 01:59:43;;;;;;;;;;;17.60;56.60;;;;;;5040326;28;92223;-51
2023/10/05 02:02:15;;;;;;;;;;;17.60;56.60;;;;;;5040147;27;93783;-50
2023/10/05 02:04:44;;;;;;;;;;;17.60;56.60;;;;;;5041943;27;94865;-50
2023/10/05 02:07:11;;;;;;;;;;;17.60;56.60;;;;;;5039869;27;93775;-51
2023/10/05 02:09:38;;;;;;;;;;;17.60;56.70;;;;;;5034884;28;94123;-51
2023/10/05 02:12:06;;;;;;;;;;;17.60;56.70;;;;;;5039760;27;92795;-49
2023/10/05 02:14:41;;;;;;;;;;;17.60;56.70;;;;;;5040169;27;93062;-51
2023/10/05 02:17:10;;;;;;;;;;;17.60;56.70;;;;;;5039091;27;94893;-52
2023/10/05 02:19:38;;;;;;;;;;;17.60;56.70;;;;;;5039177;27;92230;-54
2023/10/05 02:22:10;;;;;;;;;;;17.50;56.60;;;;;;5039921;28;92135;-53
2023/10/05 02:24:36;;;;;;;;;;;17.50;56.60;;;;;;5038705;27;94580;-49
2023/10/05 02:29:29;;;;;;;;;;;17.50;56.70;;;;;;5039558;28;92884;-51
2023/10/05 02:34:44;;;;;;;;;;;17.50;56.70;;;;;;5035782;27;93527;-52
2023/10/05 02:37:19;;;;;;;;;;;17.50;56.70;;;;;;5036878;28;93342;-50
2023/10/05 02:39:45;;;;;;;;;;;17.40;56.70;;;;;;5039334;27;92210;-52
2023/10/05 02:42:18;;;;;;;;;;;17.40;56.80;;;;;;5039478;27;92613;-47
2023/10/05 02:44:45;;;;;;;;;;;17.40;56.80;;;;;;5039224;27;93259;-51
2023/10/05 02:47:13;;;;;;;;;;;17.40;56.70;;;;;;5039601;28;92438;-50
2023/10/05 02:49:40;;;;;;;;;;;17.40;56.70;;;;;;5041373;27;94274;-50
2023/10/05 02:52:06;;;;;;;;;;;17.40;56.70;;;;;;5039821;28;91439;-49
2023/10/05 02:54:31;;;;;;;;;;;17.40;56.70;;;;;;5039067;27;93066;-53
2023/10/05 02:56:57;;;;;;;;;;;17.40;57.30;;;;;;5038833;28;93799;-52
2023/10/05 02:59:29;;;;;;;;;;;17.40;56.80;;;;;;5038827;27;93206;-53
2023/10/05 03:01:59;;;;;;;;;;;17.40;56.80;;;;;;5038837;27;95286;-54
2023/10/05 03:04:44;;;;;;;;;;;17.40;57.40;;;;;;5034143;27;94693;-52
2023/10/05 03:07:10;;;;;;;;;;;17.40;56.80;;;;;;5038765;28;92316;-51
2023/10/05 03:09:35;;;;;;;;;;;17.30;56.80;;;;;;5038844;27;92587;-52
2023/10/05 03:12:01;;;;;;;;;;;17.30;56.80;;;;;;5041764;28;93704;-53
2023/10/05 03:14:27;;;;;;;;;;;17.30;56.80;;;;;;5039304;28;92218;-51
2023/10/05 03:16:56;;;;;;;;;;;17.30;56.80;;;;;;5038961;27;93668;-49
2023/10/05 03:19:22;;;;;;;;;;;17.30;56.80;;;;;;5038659;28;92218;-51
2023/10/05 03:21:52;;;;;;;;;;;17.30;56.80;;;;;;5039193;28;92562;-53
2023/10/05 03:24:19;;;;;;;;;;;17.30;56.90;;;;;;5033969;28;96190;-53
2023/10/05 03:26:47;;;;;;;;;;;17.30;56.80;;;;;;5038350;28;92174;-52
2023/10/05 03:29:12;;;;;;;;;;;17.30;56.90;;;;;;5038801;27;94594;-48
2023/10/05 03:31:53;;;;;;;;;;;17.30;56.90;;;;;;5038213;28;93242;-50
2023/10/05 03:34:26;;;;;;;;;;;17.20;56.90;;;;;;5039380;28;92019;-49
2023/10/05 03:36:52;;;;;;;;;;;17.20;56.90;;;;;;5037958;28;94902;-51
2023/10/05 03:39:17;;;;;;;;;;;17.20;56.90;;;;;;5038738;27;92214;-54
2023/10/05 03:41:46;;;;;;;;;;;17.20;56.90;;;;;;5038834;28;92430;-55
2023/10/05 03:44:15;;;;;;;;;;;17.20;56.90;;;;;;5038165;28;93296;-54
2023/10/05 03:46:47;;;;;;;;;;;17.20;57.00;;;;;;5038587;27;92142;-51
2023/10/05 03:49:14;;;;;;;;;;;17.20;57.00;;;;;;5037845;28;93834;-48
2023/10/05 03:51:43;;;;;;;;;;;17.20;56.90;;;;;;4837181;27;5001148;-50
2023/10/05 03:54:08;;;;;;;;;;;17.10;57.00;;;;;;5041626;27;92258;-51
2023/10/05 03:56:36;;;;;;;;;;;17.10;57.00;;;;;;5037747;28;93201;-51
2023/10/05 03:59:02;;;;;;;;;;;17.10;57.00;;;;;;5038702;27;92074;-51
2023/10/05 04:01:28;;;;;;;;;;;17.10;57.00;;;;;;5038170;28;94416;-51
2023/10/05 04:03:54;;;;;;;;;;;17.10;57.00;;;;;;5037920;27;93400;-52
2023/10/05 04:06:20;;;;;;;;;;;17.10;57.00;;;;;;5038475;27;91446;-50
2023/10/05 04:08:47;;;;;;;;;;;17.10;57.00;;;;;;5038033;27;93657;-53
2023/10/05 04:11:13;;;;;;;;;;;17.10;57.00;;;;;;5037305;27;94819;-53
2023/10/05 04:13:39;;;;;;;;;;;17.10;57.70;;;;;;5037844;27;93073;-52
2023/10/05 04:16:09;;;;;;;;;;;17.10;57.10;;;;;;5042955;28;93316;-50
2023/10/05 04:18:35;;;;;;;;;;;17.10;57.10;;;;;;5037870;28;92990;-51
2023/10/05 04:21:00;;;;;;;;;;;17.10;57.20;;;;;;5041516;27;92485;-50
2023/10/05 04:23:27;;;;;;;;;;;17.00;57.00;;;;;;5041512;27;93198;-50
2023/10/05 04:25:54;;;;;;;;;;;17.00;57.10;;;;;;5041296;27;92200;-48
2023/10/05 04:28:39;;;;;;;;;;;17.00;57.10;;;;;;5041865;28;92917;-52
2023/10/05 04:31:14;;;;;;;;;;;17.00;57.10;;;;;;5041529;27;92924;-52
2023/10/05 04:33:42;;;;;;;;;;;17.00;57.10;;;;;;5036869;27;92232;-51
2023/10/05 04:36:09;;;;;;;;;;;17.00;57.10;;;;;;5041478;28;93917;-49
2023/10/05 04:38:34;;;;;;;;;;;17.00;57.10;;;;;;5042559;27;95271;-48
2023/10/05 04:41:00;;;;;;;;;;;17.00;57.10;;;;;;5040505;27;93779;-49
2023/10/05 04:43:26;;;;;;;;;;;16.90;57.30;;;;;;5037714;27;93102;-50
2023/10/05 04:45:51;;;;;;;;;;;16.90;57.10;;;;;;5041172;28;92239;-49
2023/10/05 04:48:18;;;;;;;;;;;16.90;57.00;;;;;;5039632;27;93848;-50
2023/10/05 04:50:46;;;;;;;;;;;16.90;57.10;;;;;;5037456;27;94496;-51
2023/10/05 04:53:14;;;;;;;;;;;16.90;57.10;;;;;;5038971;28;92265;-50
2023/10/05 04:55:42;;;;;;;;;;;16.90;57.10;;;;;;5040989;27;94121;-49
2023/10/05 04:58:20;;;;;;;;;;;16.90;57.70;;;;;;5037466;27;93110;-52
2023/10/05 05:03:43;;;;;;;;;;;16.90;57.10;;;;;;5039351;27;93904;-51
2023/10/05 05:08:35;;;;;;;;;;;16.80;57.10;;;;;;5040049;27;93306;-53
2023/10/05 05:11:01;;;;;;;;;;;16.80;57.10;;;;;;5035403;27;92382;-52
2023/10/05 05:13:28;;;;;;;;;;;16.80;57.10;;;;;;5038869;28;92170;-51
2023/10/05 05:15:53;;;;;;;;;;;16.80;57.20;;;;;;5039306;27;92527;-51
2023/10/05 05:18:19;;;;;;;;;;;16.80;57.20;;;;;;5038289;27;92784;-53
2023/10/05 05:20:45;;;;;;;;;;;16.80;57.20;;;;;;5038268;28;91732;-48
2023/10/05 05:23:13;;;;;;;;;;;16.80;57.20;;;;;;5043527;27;92288;-49
2023/10/05 05:25:41;;;;;;;;;;;16.80;57.20;;;;;;5036559;27;92281;-54
2023/10/05 05:28:08;;;;;;;;;;;16.80;57.20;;;;;;5035436;27;93292;-52
2023/10/05 05:30:36;;;;;;;;;;;16.80;57.20;;;;;;5040086;27;94419;-52
2023/10/05 05:33:06;;;;;;;;;;;16.80;57.20;;;;;;5039708;27;92308;-53
2023/10/05 05:35:32;;;;;;;;;;;16.80;57.20;;;;;;5045815;27;92791;-52
2023/10/05 05:37:57;;;;;;;;;;;16.70;57.20;;;;;;5037107;27;92330;-50
2023/10/05 05:40:23;;;;;;;;;;;16.80;57.20;;;;;;5040603;28;92190;-51
2023/10/05 05:42:54;;;;;;;;;;;16.80;57.30;;;;;;5040310;27;94287;-51
2023/10/05 05:45:19;;;;;;;;;;;16.70;57.20;;;;;;5042499;27;93551;-51
2023/10/05 05:47:48;;;;;;;;;;;16.70;57.30;;;;;;5038289;28;92173;-52
2023/10/05 05:50:17;;;;;;;;;;;16.70;57.20;;;;;;5039742;27;92367;-53
2023/10/05 05:52:51;;;;;;;;;;;16.70;57.20;;;;;;5039576;27;94929;-52
2023/10/05 05:55:22;;;;;;;;;;;16.70;57.10;;;;;;5036714;27;94893;-50
2023/10/05 05:57:51;;;;;;;;;;;16.70;57.20;;;;;;5037255;28;95409;-53
2023/10/05 06:00:18;;;;;;;;;;;16.70;57.20;;;;;;5040619;27;92503;-48
2023/10/05 06:02:44;;;;;;;;;;;16.70;57.20;;;;;;5037667;27;92534;-53
2023/10/05 06:05:10;;;;;;;;;;;16.70;57.20;;;;;;5040878;27;93116;-50
2023/10/05 06:07:36;;;;;;;;;;;16.70;57.20;;;;;;5039993;28;92977;-50
2023/10/05 06:10:04;;;;;;;;;;;16.70;57.10;;;;;;5039812;28;93499;-49
2023/10/05 06:12:31;;;;;;;;;;;16.70;57.10;;;;;;5037437;27;92179;-54
2023/10/05 06:14:57;;;;;;;;;;;16.70;57.10;;;;;;5037849;27;94639;-49
2023/10/05 06:17:22;;;;;;;;;;;16.70;57.20;;;;;;5038875;28;94659;-49
2023/10/05 06:19:48;;;;;;;;;;;16.70;57.10;;;;;;5039132;27;92192;-54
2023/10/05 06:22:15;;;;;;;;;;;16.70;57.20;;;;;;5037789;27;92617;-47
2023/10/05 06:24:42;;;;;;;;;;;16.70;57.20;;;;;;5038875;27;95012;-50
2023/10/05 06:27:07;;;;;;;;;;;16.70;57.20;;;;;;5038889;28;92178;-51
2023/10/05 06:29:34;;;;;;;;;;;16.70;57.90;;;;;;5038972;27;93150;-53
2023/10/05 06:32:00;;;;;;;;;;;16.70;57.20;;;;;;5040400;27;92405;-54
2023/10/05 06:34:25;;;;;;;;;;;16.70;57.30;;;;;;5037628;27;92734;-54
2023/10/05 06:36:52;;;;;;;;;;;16.70;57.30;;;;;;5038821;28;92946;-51
2023/10/05 06:39:18;;;;;;;;;;;16.70;57.30;;;;;;5038322;27;92443;-51
2023/10/05 06:41:45;;;;;;;;;;;16.70;57.30;;;;;;5036469;27;94397;-49
2023/10/05 06:44:11;;;;;;;;;;;16.70;57.40;;;;;;5035918;27;94764;-51
2023/10/05 06:46:42;;;;;;;;;;;16.70;57.30;;;;;;5039627;27;92142;-50
2023/10/05 06:49:09;;;;;;;;;;;16.70;57.40;;;;;;5041344;27;92540;-49
2023/10/05 06:51:35;;;;;;;;;;;16.70;57.40;;;;;;5037528;27;93065;-51
2023/10/05 06:54:00;;;;;;;;;;;16.70;57.40;;;;;;5035385;28;93914;-53
2023/10/05 06:56:26;;;;;;;;;;;16.70;57.40;;;;;;5038503;28;93251;-50
2023/10/05 06:58:52;;;;;;;;;;;16.60;57.40;;;;;;5040813;27;91540;-48
2023/10/05 07:01:20;;;;;;;;;;;16.60;57.40;;;;;;5036969;27;92205;-52
2023/10/05 07:03:55;;;;;;;;;;;16.60;57.30;;;;;;5038471;27;93587;-52
2023/10/05 07:06:25;;;;;;;;;;;16.70;57.40;;;;;;5034413;28;92999;-49
2023/10/05 07:08:52;;;;;;;;;;;16.70;57.40;;;;;;5034055;27;93429;-49
2023/10/05 07:11:20;;;;;;;;;;;16.70;57.40;;;;;;5039619;27;95082;-51
2023/10/05 07:13:46;;;;;;;;;;;16.70;57.50;;;;;;5037066;27;92645;-49
2023/10/05 07:16:15;;;;;;;;;;;16.70;57.40;;;;;;5040425;27;93322;-52
2023/10/05 07:18:41;;;;;;;;;;;16.70;57.40;;;;;;5036201;27;92321;-51
2023/10/05 07:21:08;;;;;;;;;;;16.70;57.40;;;;;;5037286;28;94203;-47
2023/10/05 07:23:37;;;;;;;;;;;16.70;57.40;;;;;;5038995;28;93029;-50
2023/10/05 07:26:09;;;;;;;;;;;16.70;57.50;;;;;;5036963;27;94147;-50
2023/10/05 07:28:35;;;;;;;;;;;16.70;57.50;;;;;;5034975;27;93969;-50
2023/10/05 07:31:02;;;;;;;;;;;16.70;57.40;;;;;;5035061;28;94676;-49
2023/10/05 07:33:29;;;;;;;;;;;16.70;57.50;;;;;;5041995;27;92092;-49
2023/10/05 07:35:54;;;;;;;;;;;16.70;57.50;;;;;;5036225;27;93216;-51
2023/10/05 07:38:26;;;;;;;;;;;16.70;57.50;;;;;;5035210;27;92658;-50
2023/10/05 07:40:53;;;;;;;;;;;16.70;57.50;;;;;;5034781;28;94203;-52
2023/10/05 07:43:18;;;;;;;;;;;16.70;57.50;;;;;;5037009;28;93342;-52
2023/10/05 07:45:44;;;;;;;;;;;16.70;57.50;;;;;;5036705;27;92302;-51
2023/10/05 07:48:10;;;;;;;;;;;16.70;57.60;;;;;;5034815;27;92940;-49
2023/10/05 07:50:37;;;;;;;;;;;16.70;57.60;;;;;;5038752;27;93316;-49
2023/10/05 07:53:02;;;;;;;;;;;16.70;57.50;;;;;;5040223;27;92167;-50
2023/10/05 07:55:28;;;;;;;;;;;16.70;57.50;;;;;;5044017;27;95558;-50
2023/10/05 07:57:53;;;;;;;;;;;16.70;57.70;;;;;;5040086;27;92310;-50
2023/10/05 08:00:20;;;;;;;;;;;16.70;57.60;;;;;;5041609;28;93045;-50
2023/10/05 08:02:46;;;;;;;;;;;16.70;57.70;;;;;;5039846;27;93200;-48
2023/10/05 08:05:15;;;;;;;;;;;16.70;57.70;;;;;;5039750;27;92222;-50
2023/10/05 08:07:41;;;;;;;;;;;16.70;57.80;;;;;;5040585;27;93680;-54
2023/10/05 08:10:11;;;;;;;;;;;16.70;57.80;;;;;;5040757;28;93630;-50
2023/10/05 08:12:36;;;;;;;;;;;16.70;57.70;;;;;;5039423;27;93089;-49
2023/10/05 08:15:02;;;;;;;;;;;16.70;57.70;;;;;;5041820;27;92640;-48
2023/10/05 08:17:28;;;;;;;;;;;16.70;57.80;;;;;;5040242;28;92109;-51
2023/10/05 08:19:53;;;;;;;;;;;16.70;57.80;;;;;;5040903;28;93263;-49
2023/10/05 08:22:20;;;;;;;;;;;16.70;57.80;;;;;;5038800;27;93252;-50
2023/10/05 08:24:46;;;;;;;;;;;16.70;57.80;;;;;;5033863;28;92134;-54
2023/10/05 08:27:14;;;;;;;;;;;16.70;57.80;;;;;;5041170;27;94402;-48
2023/10/05 08:29:42;;;;;;;;;;;16.70;57.80;;;;;;5039785;27;94274;-52
2023/10/05 08:32:13;;;;;;;;;;;16.70;57.90;;;;;;5038902;27;92770;-48
2023/10/05 08:34:41;;;;;;;;;;;16.70;57.80;;;;;;5041848;27;92227;-49
2023/10/05 08:37:15;;;;;;;;;;;16.70;57.90;;;;;;5044603;27;94066;-50
2023/10/05 08:39:41;;;;;;;;;;;16.70;57.90;;;;;;5039809;27;93352;-52
2023/10/05 08:42:07;;;;;;;;;;;16.80;58.00;;;;;;5038359;27;93623;-50
2023/10/05 08:44:38;;;;;;;;;;;16.80;58.00;;;;;;5040374;28;93154;-51
2023/10/05 08:47:08;;;;;;;;;;;16.80;58.00;;;;;;5041158;27;95057;-52
2023/10/05 08:49:34;;;;;;;;;;;16.80;57.90;;;;;;5037016;27;93200;-51
2023/10/05 08:52:00;;;;;;;;;;;16.70;57.80;;;;;;5036940;27;92400;-52
2023/10/05 08:54:28;;;;;;;;;;;16.80;57.90;;;;;;5041119;27;92621;-49
2023/10/05 08:56:57;;;;;;;;;;;16.80;57.90;;;;;;5036782;27;92701;-49
2023/10/05 08:59:26;;;;;;;;;;;16.80;58.00;;;;;;5042555;27;92190;-53
2023/10/05 09:01:53;;;;;;;;;;;16.80;58.00;;;;;;5039405;27;93889;-52
2023/10/05 09:06:57;;;;;;;;;;;16.80;57.90;;;;;;5039897;27;92879;-51
2023/10/05 09:09:28;;;;;;;;;;;16.80;57.90;;;;;;5036454;27;95918;-53
2023/10/05 09:11:56;;;;;;;;;;;16.80;57.90;;;;;;5036801;28;92865;-52
2023/10/05 09:14:27;;;;;;;;;;;16.80;57.80;;;;;;5037582;28;93256;-51
2023/10/05 09:17:03;;;;;;;;;;;16.80;57.90;;;;;;5036081;27;94421;-53
2023/10/05 09:19:29;;;;;;;;;;;16.80;57.90;;;;;;5040727;27;92178;-50
2023/10/05 09:24:24;;;;;;;;;;;16.80;57.90;;;;;;5039100;27;92140;-52
2023/10/05 09:26:54;;;;;;;;;;;16.90;57.90;;;;;;5036650;27;94403;-51
2023/10/05 09:29:20;;;;;;;;;;;16.90;58.00;;;;;;5038695;27;93194;-53
2023/10/05 09:31:50;;;;;;;;;;;16.90;58.00;;;;;;5038780;28;92218;-52
2023/10/05 09:34:49;;;;;;;;;;;16.90;58.00;;;;;;5034847;28;94340;-53
2023/10/05 09:37:16;;;;;;;;;;;16.90;58.00;;;;;;5035969;27;97998;-52
2023/10/05 09:39:43;;;;;;;;;;;16.90;57.90;;;;;;5038997;28;92855;-53
2023/10/05 09:42:14;;;;;;;;;;;16.90;58.00;;;;;;5040044;27;92528;-51
2023/10/05 09:44:44;;;;;;;;;;;16.90;57.90;;;;;;5038892;27;93418;-52
2023/10/05 09:47:12;;;;;;;;;;;16.90;57.90;;;;;;5035557;27;94003;-53
2023/10/05 09:49:39;;;;;;;;;;;17.00;57.90;;;;;;5038804;27;94729;-51
2023/10/05 09:52:08;;;;;;;;;;;17.00;58.00;;;;;;5039389;27;91404;-52
2023/10/05 09:54:34;;;;;;;;;;;17.00;58.10;;;;;;5036902;27;93980;-50
2023/10/05 09:57:10;;;;;;;;;;;17.00;58.00;;;;;;5041436;27;93231;-49
2023/10/05 09:59:41;;;;;;;;;;;17.00;57.90;;;;;;5039010;27;94016;-49
2023/10/05 10:02:12;;;;;;;;;;;17.00;58.10;;;;;;5034206;27;93960;-51
2023/10/05 10:04:39;;;;;;;;;;;17.00;58.10;;;;;;5037570;27;93902;-51
2023/10/05 10:07:13;;;;;;;;;;;17.10;58.10;;;;;;5041880;27;92023;-52
2023/10/05 10:09:39;;;;;;;;;;;17.10;58.10;;;;;;5035233;28;94431;-53
2023/10/05 10:12:10;;;;;;;;;;;17.10;58.00;;;;;;5040332;27;92272;-49
2023/10/05 10:14:41;;;;;;;;;;;17.10;58.70;;;;;;5035999;27;94072;-49
2023/10/05 10:17:24;;;;;;;;;;;17.10;58.00;;;;;;5039765;27;92956;-51
2023/10/05 10:19:55;;;;;;;;;;;17.10;58.10;;;;;;5037452;27;92887;-52
2023/10/05 10:22:28;;;;;;;;;;;17.10;58.30;;;;;;5038472;27;94240;-49
2023/10/05 10:24:56;;;;;;;;;;;17.20;58.40;;;;;;5037384;27;95232;-52
2023/10/05 10:27:27;;;;;;;;;;;17.20;58.40;;;;;;5042935;27;92233;-52
2023/10/05 10:29:55;;;;;;;;;;;17.20;58.40;;;;;;5039520;27;93332;-50
2023/10/05 10:32:22;;;;;;;;;;;17.20;58.20;;;;;;5037007;28;93363;-53
2023/10/05 10:34:55;;;;;;;;;;;17.30;58.30;;;;;;5037826;27;92923;-51
2023/10/05 10:37:42;;;;;;;;;;;17.30;58.50;;;;;;5039223;27;92424;-52
2023/10/05 10:40:25;;;;;;;;;;;17.30;58.50;;;;;;5037540;27;92214;-51
2023/10/05 10:42:50;;;;;;;;;;;17.30;58.50;;;;;;5039898;27;94201;-55
2023/10/05 10:45:23;;;;;;;;;;;17.30;58.50;;;;;;5038639;27;93132;-53
2023/10/05 10:47:50;;;;;;;;;;;17.30;58.10;;;;;;5038285;27;93813;-52
2023/10/05 10:50:16;;;;;;;;;;;17.30;58.20;;;;;;5039140;27;94845;-53
2023/10/05 10:52:45;;;;;;;;;;;17.40;58.20;;;;;;5037340;28;92287;-53
2023/10/05 10:55:20;;;;;;;;;;;17.40;58.50;;;;;;5039396;28;92472;-52
2023/10/05 10:57:53;;;;;;;;;;;17.40;58.50;;;;;;5037097;27;93156;-51
2023/10/05 11:03:10;;;;;;;;;;;17.40;59.20;;;;;;5034467;28;92396;-50
2023/10/05 11:05:40;;;;;;;;;;;17.50;58.30;;;;;;5038068;27;93244;-52
2023/10/05 11:08:09;;;;;;;;;;;17.50;58.80;;;;;;5036331;27;92151;-49
2023/10/05 11:10:35;;;;;;;;;;;17.50;58.40;;;;;;5036206;27;92898;-49
2023/10/05 11:13:19;;;;;;;;;;;17.50;58.40;;;;;;5041093;28;93736;-50
2023/10/05 11:15:57;;;;;;;;;;;17.50;58.50;;;;;;5036598;27;93047;-52
2023/10/05 11:18:27;;;;;;;;;;;17.50;58.60;;;;;;5043246;27;93181;-49
2023/10/05 11:20:52;;;;;;;;;;;17.60;58.70;;;;;;5036070;28;92159;-52
2023/10/05 11:23:25;;;;;;;;;;;17.60;58.40;;;;;;5038785;27;94143;-53
2023/10/05 11:28:38;;;;;;;;;;;17.60;58.10;;;;;;5034659;27;93033;-51
2023/10/05 11:31:04;;;;;;;;;;;17.60;58.30;;;;;;5038503;28;92598;-52
2023/10/05 11:33:35;;;;;;;;;;;17.70;58.60;;;;;;5037837;27;93846;-51
2023/10/05 11:36:17;;;;;;;;;;;17.70;58.60;;;;;;5042698;27;92995;-52
2023/10/05 11:38:42;;;;;;;;;;;17.70;58.50;;;;;;5035629;28;92438;-50
2023/10/05 11:41:09;;;;;;;;;;;17.70;58.60;;;;;;5038280;27;93033;-51
2023/10/05 11:43:34;;;;;;;;;;;17.80;58.50;;;;;;5037911;27;93319;-52
2023/10/05 11:48:48;;;;;;;;;;;17.80;58.40;;;;;;5035693;28;92044;-53
2023/10/05 11:51:19;;;;;;;;;;;17.80;58.50;;;;;;5038188;27;94188;-53
2023/10/05 11:53:46;;;;;;;;;;;17.80;58.50;;;;;;5033485;27;93434;-53
2023/10/05 11:56:15;;;;;;;;;;;17.80;58.40;;;;;;5034313;27;92372;-52
2023/10/05 11:58:41;;;;;;;;;;;17.80;58.50;;;;;;5041193;28;94264;-49
2023/10/05 12:01:07;;;;;;;;;;;17.90;58.40;;;;;;5036969;27;92256;-51
2023/10/05 12:03:33;;;;;;;;;;;17.90;58.60;;;;;;5035288;27;94116;-52
2023/10/05 12:06:01;;;;;;;;;;;17.90;58.30;;;;;;5033889;28;94137;-50
2023/10/05 12:08:30;;;;;;;;;;;18.00;58.40;;;;;;5037855;28;92224;-49
2023/10/05 12:10:59;;;;;;;;;;;18.00;58.50;;;;;;5035413;27;92550;-51
2023/10/05 12:13:27;;;;;;;;;;;18.00;58.30;;;;;;5034976;27;94231;-48
2023/10/05 12:15:53;;;;;;;;;;;18.00;58.40;;;;;;5037112;28;92479;-48
2023/10/05 12:18:19;;;;;;;;;;;18.00;58.40;;;;;;5040567;28;93885;-51
2023/10/05 12:20:46;;;;;;;;;;;18.00;58.30;;;;;;5037815;27;92656;-53
2023/10/05 12:23:14;;;;;;;;;;;18.10;58.10;;;;;;5038250;27;92038;-53
2023/10/05 12:25:41;;;;;;;;;;;18.10;58.10;;;;;;5037164;28;92889;-50
2023/10/05 12:28:08;;;;;;;;;;;18.10;58.10;;;;;;5037420;27;92124;-52
2023/10/05 12:30:35;;;;;;;;;;;18.10;58.20;;;;;;5034548;27;94071;-52
2023/10/05 12:33:00;;;;;;;;;;;18.10;58.40;;;;;;5035103;27;93625;-52
2023/10/05 12:35:29;;;;;;;;;;;18.10;58.60;;;;;;5038510;27;92128;-52
2023/10/05 12:37:58;;;;;;;;;;;18.20;58.50;;;;;;5040551;27;92555;-48
2023/10/05 12:40:33;;;;;;;;;;;18.20;58.50;;;;;;5040035;27;93280;-50
2023/10/05 12:42:59;;;;;;;;;;;18.20;58.40;;;;;;5036201;27;93740;-52
2023/10/05 12:45:25;;;;;;;;;;;18.20;58.40;;;;;;5039922;27;93321;-53
2023/10/05 12:47:56;;;;;;;;;;;18.30;58.50;;;;;;5045698;27;92108;-54
2023/10/05 12:50:22;;;;;;;;;;;18.30;58.20;;;;;;5036840;27;92454;-52
2023/10/05 12:52:51;;;;;;;;;;;18.30;58.40;;;;;;5040100;27;93137;-51
2023/10/05 12:55:22;;;;;;;;;;;18.30;58.30;;;;;;5040424;27;93141;-48
2023/10/05 12:57:50;;;;;;;;;;;18.30;58.30;;;;;;5038674;27;95055;-52
2023/10/05 13:00:19;;;;;;;;;;;18.40;58.20;;;;;;5038542;27;94377;-54
2023/10/05 13:02:51;;;;;;;;;;;18.30;58.20;;;;;;5043884;27;92192;-48
2023/10/05 13:05:28;;;;;;;;;;;18.40;58.80;;;;;;5039649;27;93535;-51
2023/10/05 13:07:54;;;;;;;;;;;18.40;58.10;;;;;;5036814;27;92309;-53
2023/10/05 13:10:26;;;;;;;;;;;18.40;57.90;;;;;;5042388;27;92987;-48
2023/10/05 13:12:52;;;;;;;;;;;18.40;58.20;;;;;;5041172;27;92776;-51
2023/10/05 13:15:24;;;;;;;;;;;18.40;58.00;;;;;;5039185;27;92248;-51
2023/10/05 13:17:55;;;;;;;;;;;18.50;58.00;;;;;;5041548;27;94257;-54
2023/10/05 13:20:24;;;;;;;;;;;18.50;58.20;;;;;;5038638;27;95658;-52
2023/10/05 13:22:53;;;;;;;;;;;18.50;57.80;;;;;;5040854;27;92193;-51
2023/10/05 13:25:25;;;;;;;;;;;18.50;57.90;;;;;;5041504;27;94079;-50
2023/10/05 13:27:52;;;;;;;;;;;18.50;57.80;;;;;;5038470;27;93575;-52
2023/10/05 13:30:22;;;;;;;;;;;18.60;57.70;;;;;;5040270;28;92654;-50
2023/10/05 13:32:49;;;;;;;;;;;18.60;57.80;;;;;;5035814;28;94507;-51
2023/10/05 13:35:18;;;;;;;;;;;18.60;58.10;;;;;;5038294;27;92671;-51
2023/10/05 13:37:44;;;;;;;;;;;18.60;58.20;;;;;;5037952;27;91975;-51
2023/10/05 13:40:15;;;;;;;;;;;18.60;58.10;;;;;;5040192;27;93176;-49
2023/10/05 13:42:41;;;;;;;;;;;18.60;57.90;;;;;;5039953;27;92416;-53
2023/10/05 13:45:10;;;;;;;;;;;18.60;58.00;;;;;;5037641;27;93993;-52
2023/10/05 13:47:36;;;;;;;;;;;18.60;57.80;;;;;;5039525;27;93407;-52
2023/10/05 13:50:08;;;;;;;;;;;18.70;58.20;;;;;;5040501;27;92971;-51
2023/10/05 13:52:34;;;;;;;;;;;18.70;58.10;;;;;;5038752;28;94387;-54
2023/10/05 13:54:59;;;;;;;;;;;18.70;58.20;;;;;;5038078;27;92216;-52
2023/10/05 13:57:28;;;;;;;;;;;18.70;57.90;;;;;;5037114;28;92995;-48
2023/10/05 13:59:54;;;;;;;;;;;18.80;58.20;;;;;;5039313;27;93148;-53
2023/10/05 14:02:20;;;;;;;;;;;18.70;58.10;;;;;;5039587;27;91415;-48
2023/10/05 14:04:45;;;;;;;;;;;18.70;58.00;;;;;;5038302;27;92613;-51
2023/10/05 14:07:12;;;;;;;;;;;18.80;58.10;;;;;;5038214;28;93497;-52
2023/10/05 14:09:43;;;;;;;;;;;18.80;58.20;;;;;;5042531;27;93162;-52
2023/10/05 14:12:10;;;;;;;;;;;18.80;58.30;;;;;;5038454;27;93489;-50
2023/10/05 14:14:35;;;;;;;;;;;18.80;58.30;;;;;;5037788;27;92197;-53
2023/10/05 14:17:06;;;;;;;;;;;18.80;58.30;;;;;;5035567;27;92760;-51
2023/10/05 14:19:33;;;;;;;;;;;18.80;58.30;;;;;;5039278;27;94834;-50
2023/10/05 14:22:03;;;;;;;;;;;18.90;58.30;;;;;;5038401;27;92544;-51
2023/10/05 14:24:32;;;;;;;;;;;18.90;58.40;;;;;;5039434;27;94321;-53
2023/10/05 14:26:59;;;;;;;;;;;18.90;58.20;;;;;;5038216;28;93638;-52
2023/10/05 14:29:34;;;;;;;;;;;18.90;58.20;;;;;;5042604;27;92151;-51
2023/10/05 14:32:04;;;;;;;;;;;18.90;58.30;;;;;;5034859;27;94650;-49
2023/10/05 14:34:31;;;;;;;;;;;18.90;58.40;;;;;;5039338;27;93773;-52
2023/10/05 14:36:58;;;;;;;;;;;18.90;58.30;;;;;;5039836;27;93908;-50
2023/10/05 14:39:32;;;;;;;;;;;18.90;58.40;;;;;;5037661;27;95125;-49
2023/10/05 14:42:01;;;;;;;;;;;19.00;58.40;;;;;;5035027;27;93875;-51
2023/10/05 14:44:28;;;;;;;;;;;19.00;58.40;;;;;;5035446;27;94120;-51
2023/10/05 14:46:55;;;;;;;;;;;19.00;58.40;;;;;;5038579;28;93592;-51
2023/10/05 14:49:25;;;;;;;;;;;19.00;58.40;;;;;;5034498;27;92758;-54
2023/10/05 14:51:51;;;;;;;;;;;19.00;58.40;;;;;;5042619;27;94790;-50